sensor_id;sensor_type;location;lat;lon;timestamp;temperature;humidity
43651;DHT22;29247;50.944;5.382;2023-02-15T00:01:38;4.90;83.10
43651;DHT22;29247;50.944;5.382;2023-02-15T00:04:05;4.90;83.10
43651;DHT22;29247;50.944;5.382;2023-02-15T00:06:32;4.80;82.90
43651;DHT22;29247;50.944;5.382;2023-02-15T00:09:01;4.80;83.10
43651;DHT22;29247;50.944;5.382;2023-02-15T00:11:27;4.80;83.00
43651;DHT22;29247;50.944;5.382;2023-02-15T00:14:12;4.80;83.10
43651;DHT22;29247;50.944;5.382;2023-02-15T00:16:44;4.80;83.10
43651;DHT22;29247;50.944;5.382;2023-02-15T00:19:11;4.70;83.10
43651;DHT22;29247;50.944;5.382;2023-02-15T00:21:39;4.70;83.10
43651;DHT22;29247;50.944;5.382;2023-02-15T00:24:06;4.70;83.20
43651;DHT22;29247;50.944;5.382;2023-02-15T00:26:38;4.70;83.20
43651;DHT22;29247;50.944;5.382;2023-02-15T00:29:04;4.70;83.30
43651;DHT22;29247;50.944;5.382;2023-02-15T00:31:31;4.60;83.20
43651;DHT22;29247;50.944;5.382;2023-02-15T00:34:11;4.60;83.20
43651;DHT22;29247;50.944;5.382;2023-02-15T00:36:37;4.60;83.30
43651;DHT22;29247;50.944;5.382;2023-02-15T00:39:04;4.60;83.30
43651;DHT22;29247;50.944;5.382;2023-02-15T00:41:33;4.60;83.40
43651;DHT22;29247;50.944;5.382;2023-02-15T00:44:02;4.60;83.50
43651;DHT22;29247;50.944;5.382;2023-02-15T00:46:30;4.60;83.40
43651;DHT22;29247;50.944;5.382;2023-02-15T00:48:56;4.60;83.40
43651;DHT22;29247;50.944;5.382;2023-02-15T00:51:25;4.60;83.40
43651;DHT22;29247;50.944;5.382;2023-02-15T00:53:52;4.50;83.30
43651;DHT22;29247;50.944;5.382;2023-02-15T00:56:19;4.50;83.30
43651;DHT22;29247;50.944;5.382;2023-02-15T00:58:45;4.50;83.30
43651;DHT22;29247;50.944;5.382;2023-02-15T01:01:13;4.50;83.40
43651;DHT22;29247;50.944;5.382;2023-02-15T01:03:39;4.50;83.40
43651;DHT22;29247;50.944;5.382;2023-02-15T01:06:10;4.50;83.50
43651;DHT22;29247;50.944;5.382;2023-02-15T01:08:36;4.50;83.60
43651;DHT22;29247;50.944;5.382;2023-02-15T01:11:07;4.50;83.60
43651;DHT22;29247;50.944;5.382;2023-02-15T01:13:35;4.40;83.50
43651;DHT22;29247;50.944;5.382;2023-02-15T01:16:01;4.40;83.60
43651;DHT22;29247;50.944;5.382;2023-02-15T01:18:33;4.40;83.60
43651;DHT22;29247;50.944;5.382;2023-02-15T01:20:59;4.40;83.60
43651;DHT22;29247;50.944;5.382;2023-02-15T01:23:25;4.40;83.60
43651;DHT22;29247;50.944;5.382;2023-02-15T01:25:54;4.40;83.60
43651;DHT22;29247;50.944;5.382;2023-02-15T01:28:21;4.30;83.50
43651;DHT22;29247;50.944;5.382;2023-02-15T01:30:47;4.40;83.50
43651;DHT22;29247;50.944;5.382;2023-02-15T01:33:15;4.30;83.40
43651;DHT22;29247;50.944;5.382;2023-02-15T01:35:44;4.30;83.40
43651;DHT22;29247;50.944;5.382;2023-02-15T01:38:12;4.30;83.30
43651;DHT22;29247;50.944;5.382;2023-02-15T01:40:38;4.20;83.20
43651;DHT22;29247;50.944;5.382;2023-02-15T01:43:10;4.20;83.30
43651;DHT22;29247;50.944;5.382;2023-02-15T01:45:36;4.20;83.30
43651;DHT22;29247;50.944;5.382;2023-02-15T01:48:15;4.20;83.40
43651;DHT22;29247;50.944;5.382;2023-02-15T01:50:50;4.10;83.50
43651;DHT22;29247;50.944;5.382;2023-02-15T01:53:38;4.10;83.30
43651;DHT22;29247;50.944;5.382;2023-02-15T01:56:17;4.10;83.40
43651;DHT22;29247;50.944;5.382;2023-02-15T01:58:47;4.10;83.50
43651;DHT22;29247;50.944;5.382;2023-02-15T02:01:15;4.00;83.50
43651;DHT22;29247;50.944;5.382;2023-02-15T02:04:11;4.00;83.60
43651;DHT22;29247;50.944;5.382;2023-02-15T02:06:39;4.00;83.70
43651;DHT22;29247;50.944;5.382;2023-02-15T02:09:06;4.00;83.50
43651;DHT22;29247;50.944;5.382;2023-02-15T02:11:32;4.00;83.60
43651;DHT22;29247;50.944;5.382;2023-02-15T02:13:58;4.00;83.60
43651;DHT22;29247;50.944;5.382;2023-02-15T02:30:48;3.70;83.50
43651;DHT22;29247;50.944;5.382;2023-02-15T02:33:36;3.70;83.60
43651;DHT22;29247;50.944;5.382;2023-02-15T02:44:18;3.70;83.90
43651;DHT22;29247;50.944;5.382;2023-02-15T02:46:52;3.60;83.80
43651;DHT22;29247;50.944;5.382;2023-02-15T02:50:03;3.60;83.70
43651;DHT22;29247;50.944;5.382;2023-02-15T02:55:28;3.60;83.70
43651;DHT22;29247;50.944;5.382;2023-02-15T02:58:21;3.60;83.80
43651;DHT22;29247;50.944;5.382;2023-02-15T03:00:57;3.60;84.00
43651;DHT22;29247;50.944;5.382;2023-02-15T03:03:40;3.60;84.00
43651;DHT22;29247;50.944;5.382;2023-02-15T03:06:13;3.60;84.20
43651;DHT22;29247;50.944;5.382;2023-02-15T03:08:51;3.60;84.20
43651;DHT22;29247;50.944;5.382;2023-02-15T03:11:18;3.60;84.20
43651;DHT22;29247;50.944;5.382;2023-02-15T03:13:51;3.60;84.20
43651;DHT22;29247;50.944;5.382;2023-02-15T03:16:17;3.60;84.20
43651;DHT22;29247;50.944;5.382;2023-02-15T03:21:47;3.60;84.00
43651;DHT22;29247;50.944;5.382;2023-02-15T03:24:19;3.50;84.10
43651;DHT22;29247;50.944;5.382;2023-02-15T03:26:50;3.50;84.10
43651;DHT22;29247;50.944;5.382;2023-02-15T03:29:18;3.50;84.10
43651;DHT22;29247;50.944;5.382;2023-02-15T03:31:48;3.50;84.10
43651;DHT22;29247;50.944;5.382;2023-02-15T03:34:17;3.50;84.10
43651;DHT22;29247;50.944;5.382;2023-02-15T03:39:56;3.50;84.40
43651;DHT22;29247;50.944;5.382;2023-02-15T03:42:49;3.50;84.40
43651;DHT22;29247;50.944;5.382;2023-02-15T03:45:23;3.50;84.40
43651;DHT22;29247;50.944;5.382;2023-02-15T03:47:52;3.40;84.30
43651;DHT22;29247;50.944;5.382;2023-02-15T03:50:26;3.40;84.20
43651;DHT22;29247;50.944;5.382;2023-02-15T03:53:16;3.40;84.30
43651;DHT22;29247;50.944;5.382;2023-02-15T03:55:46;3.40;84.20
43651;DHT22;29247;50.944;5.382;2023-02-15T03:58:12;3.40;84.10
43651;DHT22;29247;50.944;5.382;2023-02-15T04:00:59;3.40;84.10
43651;DHT22;29247;50.944;5.382;2023-02-15T04:04:15;3.30;84.20
43651;DHT22;29247;50.944;5.382;2023-02-15T04:06:45;3.30;84.30
43651;DHT22;29247;50.944;5.382;2023-02-15T04:09:14;3.30;84.20
43651;DHT22;29247;50.944;5.382;2023-02-15T04:11:58;3.30;84.30
43651;DHT22;29247;50.944;5.382;2023-02-15T04:14:24;3.30;84.30
43651;DHT22;29247;50.944;5.382;2023-02-15T04:17:09;3.30;84.50
43651;DHT22;29247;50.944;5.382;2023-02-15T04:19:37;3.30;84.40
43651;DHT22;29247;50.944;5.382;2023-02-15T04:22:21;3.30;84.50
43651;DHT22;29247;50.944;5.382;2023-02-15T04:25:08;3.30;84.40
43651;DHT22;29247;50.944;5.382;2023-02-15T04:27:48;3.30;84.40
43651;DHT22;29247;50.944;5.382;2023-02-15T04:30:15;3.20;84.40
43651;DHT22;29247;50.944;5.382;2023-02-15T04:32:43;3.20;84.30
43651;DHT22;29247;50.944;5.382;2023-02-15T04:35:11;3.20;84.30
43651;DHT22;29247;50.944;5.382;2023-02-15T04:37:38;3.20;84.40
43651;DHT22;29247;50.944;5.382;2023-02-15T04:40:09;3.20;84.50
43651;DHT22;29247;50.944;5.382;2023-02-15T04:42:35;3.20;84.40
43651;DHT22;29247;50.944;5.382;2023-02-15T04:45:03;3.20;84.40
43651;DHT22;29247;50.944;5.382;2023-02-15T04:47:29;3.10;84.40
43651;DHT22;29247;50.944;5.382;2023-02-15T04:49:55;3.10;84.40
43651;DHT22;29247;50.944;5.382;2023-02-15T04:52:21;3.10;84.50
43651;DHT22;29247;50.944;5.382;2023-02-15T04:54:47;3.10;84.50
43651;DHT22;29247;50.944;5.382;2023-02-15T04:57:13;3.10;84.50
43651;DHT22;29247;50.944;5.382;2023-02-15T04:59:38;3.10;84.60
43651;DHT22;29247;50.944;5.382;2023-02-15T05:02:06;3.10;84.60
43651;DHT22;29247;50.944;5.382;2023-02-15T05:04:32;3.10;84.60
43651;DHT22;29247;50.944;5.382;2023-02-15T05:06:58;3.10;84.60
43651;DHT22;29247;50.944;5.382;2023-02-15T05:09:23;3.10;84.60
43651;DHT22;29247;50.944;5.382;2023-02-15T05:11:49;3.10;84.60
43651;DHT22;29247;50.944;5.382;2023-02-15T05:14:15;3.10;84.60
43651;DHT22;29247;50.944;5.382;2023-02-15T05:16:44;3.10;84.60
43651;DHT22;29247;50.944;5.382;2023-02-15T05:19:11;3.10;84.70
43651;DHT22;29247;50.944;5.382;2023-02-15T05:21:38;3.10;84.60
43651;DHT22;29247;50.944;5.382;2023-02-15T05:24:03;3.10;84.60
43651;DHT22;29247;50.944;5.382;2023-02-15T05:26:49;3.10;84.70
43651;DHT22;29247;50.944;5.382;2023-02-15T05:29:33;3.10;84.60
43651;DHT22;29247;50.944;5.382;2023-02-15T05:31:59;3.00;84.60
43651;DHT22;29247;50.944;5.382;2023-02-15T05:34:27;3.00;84.70
43651;DHT22;29247;50.944;5.382;2023-02-15T05:36:52;3.10;84.80
43651;DHT22;29247;50.944;5.382;2023-02-15T05:39:18;3.10;84.80
43651;DHT22;29247;50.944;5.382;2023-02-15T05:41:44;3.00;84.70
43651;DHT22;29247;50.944;5.382;2023-02-15T05:44:10;3.10;84.70
43651;DHT22;29247;50.944;5.382;2023-02-15T05:46:35;3.00;84.70
43651;DHT22;29247;50.944;5.382;2023-02-15T05:49:01;3.00;84.70
43651;DHT22;29247;50.944;5.382;2023-02-15T05:51:26;3.00;84.70
43651;DHT22;29247;50.944;5.382;2023-02-15T05:53:52;3.00;84.70
43651;DHT22;29247;50.944;5.382;2023-02-15T05:56:21;3.00;84.70
43651;DHT22;29247;50.944;5.382;2023-02-15T05:58:47;3.00;84.60
43651;DHT22;29247;50.944;5.382;2023-02-15T06:01:21;3.00;84.60
43651;DHT22;29247;50.944;5.382;2023-02-15T06:03:48;2.90;84.60
43651;DHT22;29247;50.944;5.382;2023-02-15T06:06:16;2.90;84.60
43651;DHT22;29247;50.944;5.382;2023-02-15T06:08:42;2.90;84.60
43651;DHT22;29247;50.944;5.382;2023-02-15T06:11:10;2.90;84.70
43651;DHT22;29247;50.944;5.382;2023-02-15T06:13:36;2.90;84.60
43651;DHT22;29247;50.944;5.382;2023-02-15T06:16:02;2.90;84.70
43651;DHT22;29247;50.944;5.382;2023-02-15T06:18:27;2.90;84.70
43651;DHT22;29247;50.944;5.382;2023-02-15T06:20:53;2.90;84.80
43651;DHT22;29247;50.944;5.382;2023-02-15T06:23:24;2.90;84.80
43651;DHT22;29247;50.944;5.382;2023-02-15T06:25:50;2.90;84.80
43651;DHT22;29247;50.944;5.382;2023-02-15T06:28:15;2.90;84.60
43651;DHT22;29247;50.944;5.382;2023-02-15T06:30:41;2.80;84.60
43651;DHT22;29247;50.944;5.382;2023-02-15T06:33:07;2.80;84.70
43651;DHT22;29247;50.944;5.382;2023-02-15T06:35:33;2.80;84.80
43651;DHT22;29247;50.944;5.382;2023-02-15T06:37:59;2.80;84.90
43651;DHT22;29247;50.944;5.382;2023-02-15T06:40:24;2.80;84.90
43651;DHT22;29247;50.944;5.382;2023-02-15T06:42:50;2.80;84.90
43651;DHT22;29247;50.944;5.382;2023-02-15T06:45:18;2.80;84.80
43651;DHT22;29247;50.944;5.382;2023-02-15T06:47:43;2.80;84.90
43651;DHT22;29247;50.944;5.382;2023-02-15T06:50:09;2.80;85.00
43651;DHT22;29247;50.944;5.382;2023-02-15T06:52:38;2.80;85.00
43651;DHT22;29247;50.944;5.382;2023-02-15T06:55:06;2.80;85.10
43651;DHT22;29247;50.944;5.382;2023-02-15T06:57:31;2.80;85.10
43651;DHT22;29247;50.944;5.382;2023-02-15T07:00:01;2.80;85.10
43651;DHT22;29247;50.944;5.382;2023-02-15T07:02:26;2.80;85.10
43651;DHT22;29247;50.944;5.382;2023-02-15T07:04:54;2.80;85.10
43651;DHT22;29247;50.944;5.382;2023-02-15T07:07:21;2.80;85.20
43651;DHT22;29247;50.944;5.382;2023-02-15T07:09:47;2.80;85.20
43651;DHT22;29247;50.944;5.382;2023-02-15T07:12:12;2.80;85.20
43651;DHT22;29247;50.944;5.382;2023-02-15T07:14:57;2.80;85.20
43651;DHT22;29247;50.944;5.382;2023-02-15T07:17:23;2.80;85.20
43651;DHT22;29247;50.944;5.382;2023-02-15T07:19:56;2.80;85.20
43651;DHT22;29247;50.944;5.382;2023-02-15T07:22:21;2.80;85.20
43651;DHT22;29247;50.944;5.382;2023-02-15T07:24:49;2.80;85.20
43651;DHT22;29247;50.944;5.382;2023-02-15T07:27:20;2.80;85.30
43651;DHT22;29247;50.944;5.382;2023-02-15T07:29:51;2.80;85.30
43651;DHT22;29247;50.944;5.382;2023-02-15T07:32:16;2.80;85.30
43651;DHT22;29247;50.944;5.382;2023-02-15T07:34:42;2.90;85.40
43651;DHT22;29247;50.944;5.382;2023-02-15T07:37:07;2.90;85.50
43651;DHT22;29247;50.944;5.382;2023-02-15T07:39:36;2.90;85.60
43651;DHT22;29247;50.944;5.382;2023-02-15T07:42:01;2.90;85.60
43651;DHT22;29247;50.944;5.382;2023-02-15T07:44:27;2.90;85.60
43651;DHT22;29247;50.944;5.382;2023-02-15T07:46:53;3.00;85.70
43651;DHT22;29247;50.944;5.382;2023-02-15T07:49:22;3.00;85.80
43651;DHT22;29247;50.944;5.382;2023-02-15T07:51:50;3.10;86.10
43651;DHT22;29247;50.944;5.382;2023-02-15T07:54:18;3.10;86.50
43651;DHT22;29247;50.944;5.382;2023-02-15T07:56:46;3.10;86.80
43651;DHT22;29247;50.944;5.382;2023-02-15T07:59:12;3.20;87.20
43651;DHT22;29247;50.944;5.382;2023-02-15T08:01:39;3.20;87.40
43651;DHT22;29247;50.944;5.382;2023-02-15T08:04:07;3.20;87.30
43651;DHT22;29247;50.944;5.382;2023-02-15T08:06:36;3.30;87.40
43651;DHT22;29247;50.944;5.382;2023-02-15T08:09:07;3.30;87.30
43651;DHT22;29247;50.944;5.382;2023-02-15T08:11:35;3.40;87.30
43651;DHT22;29247;50.944;5.382;2023-02-15T08:14:14;3.40;87.20
43651;DHT22;29247;50.944;5.382;2023-02-15T08:16:45;3.50;87.40
43651;DHT22;29247;50.944;5.382;2023-02-15T08:21:47;3.60;87.50
43651;DHT22;29247;50.944;5.382;2023-02-15T08:24:18;3.70;87.80
43651;DHT22;29247;50.944;5.382;2023-02-15T08:26:49;3.80;88.00
43651;DHT22;29247;50.944;5.382;2023-02-15T08:29:23;3.80;88.00
43651;DHT22;29247;50.944;5.382;2023-02-15T08:31:50;3.90;88.00
43651;DHT22;29247;50.944;5.382;2023-02-15T08:34:18;3.90;87.80
43651;DHT22;29247;50.944;5.382;2023-02-15T08:36:45;4.00;87.80
43651;DHT22;29247;50.944;5.382;2023-02-15T08:39:11;4.10;87.90
43651;DHT22;29247;50.944;5.382;2023-02-15T08:41:38;4.10;88.00
43651;DHT22;29247;50.944;5.382;2023-02-15T08:44:06;4.20;88.20
43651;DHT22;29247;50.944;5.382;2023-02-15T08:46:34;4.30;88.40
43651;DHT22;29247;50.944;5.382;2023-02-15T08:49:00;4.30;88.50
43651;DHT22;29247;50.944;5.382;2023-02-15T08:51:29;4.40;88.70
43651;DHT22;29247;50.944;5.382;2023-02-15T08:54:00;4.50;88.90
43651;DHT22;29247;50.944;5.382;2023-02-15T08:56:31;4.60;89.00
43651;DHT22;29247;50.944;5.382;2023-02-15T08:58:57;4.60;89.00
43651;DHT22;29247;50.944;5.382;2023-02-15T09:01:31;4.70;89.00
43651;DHT22;29247;50.944;5.382;2023-02-15T09:04:03;4.80;89.00
43651;DHT22;29247;50.944;5.382;2023-02-15T09:06:31;4.80;89.00
43651;DHT22;29247;50.944;5.382;2023-02-15T09:08:57;4.90;89.20
43651;DHT22;29247;50.944;5.382;2023-02-15T09:11:30;5.00;89.30
43651;DHT22;29247;50.944;5.382;2023-02-15T09:13:59;5.00;89.30
43651;DHT22;29247;50.944;5.382;2023-02-15T09:16:29;5.10;89.30
43651;DHT22;29247;50.944;5.382;2023-02-15T09:18:55;5.20;89.50
43651;DHT22;29247;50.944;5.382;2023-02-15T09:21:25;5.30;89.50
43651;DHT22;29247;50.944;5.382;2023-02-15T09:23:58;5.30;89.40
43651;DHT22;29247;50.944;5.382;2023-02-15T09:26:25;5.40;89.60
43651;DHT22;29247;50.944;5.382;2023-02-15T09:28:56;5.50;89.60
43651;DHT22;29247;50.944;5.382;2023-02-15T09:31:27;5.50;89.60
43651;DHT22;29247;50.944;5.382;2023-02-15T09:33:54;5.60;89.60
43651;DHT22;29247;50.944;5.382;2023-02-15T09:36:26;5.70;89.70
43651;DHT22;29247;50.944;5.382;2023-02-15T09:39:16;5.80;89.80
43651;DHT22;29247;50.944;5.382;2023-02-15T09:54:58;6.40;90.00
43651;DHT22;29247;50.944;5.382;2023-02-15T09:57:46;6.50;90.00
43651;DHT22;29247;50.944;5.382;2023-02-15T10:03:20;6.70;89.90
43651;DHT22;29247;50.944;5.382;2023-02-15T10:28:32;8.00;88.30
43651;DHT22;29247;50.944;5.382;2023-02-15T10:39:24;8.50;85.80
43651;DHT22;29247;50.944;5.382;2023-02-15T10:48:00;8.80;84.30
43651;DHT22;29247;50.944;5.382;2023-02-15T10:50:53;8.90;83.60
43651;DHT22;29247;50.944;5.382;2023-02-15T11:06:21;9.60;80.80
43651;DHT22;29247;50.944;5.382;2023-02-15T11:08:56;9.80;80.30
43651;DHT22;29247;50.944;5.382;2023-02-15T11:11:27;9.90;79.70
43651;DHT22;29247;50.944;5.382;2023-02-15T11:14:02;10.00;79.40
43651;DHT22;29247;50.944;5.382;2023-02-15T11:16:38;10.10;79.00
43651;DHT22;29247;50.944;5.382;2023-02-15T11:19:12;10.30;78.70
43651;DHT22;29247;50.944;5.382;2023-02-15T11:21:49;10.40;78.00
43651;DHT22;29247;50.944;5.382;2023-02-15T11:24:20;10.50;77.40
43651;DHT22;29247;50.944;5.382;2023-02-15T11:26:56;10.60;76.90
43651;DHT22;29247;50.944;5.382;2023-02-15T11:29:37;10.60;76.40
43651;DHT22;29247;50.944;5.382;2023-02-15T11:32:31;10.70;75.90
43651;DHT22;29247;50.944;5.382;2023-02-15T11:35:03;10.80;75.40
43651;DHT22;29247;50.944;5.382;2023-02-15T11:40:30;10.90;75.00
43651;DHT22;29247;50.944;5.382;2023-02-15T11:43:05;11.00;74.70
43651;DHT22;29247;50.944;5.382;2023-02-15T11:45:34;11.10;74.50
43651;DHT22;29247;50.944;5.382;2023-02-15T11:48:00;11.20;74.10
43651;DHT22;29247;50.944;5.382;2023-02-15T11:50:29;11.30;73.60
43651;DHT22;29247;50.944;5.382;2023-02-15T11:53:13;11.30;72.90
43651;DHT22;29247;50.944;5.382;2023-02-15T11:55:45;11.40;72.50
43651;DHT22;29247;50.944;5.382;2023-02-15T11:58:32;11.40;71.90
43651;DHT22;29247;50.944;5.382;2023-02-15T12:07:00;11.60;70.30
43651;DHT22;29247;50.944;5.382;2023-02-15T12:09:38;11.70;69.80
43651;DHT22;29247;50.944;5.382;2023-02-15T12:14:56;11.70;69.30
43651;DHT22;29247;50.944;5.382;2023-02-15T12:17:27;11.80;68.80
43651;DHT22;29247;50.944;5.382;2023-02-15T12:19:57;11.80;68.70
43651;DHT22;29247;50.944;5.382;2023-02-15T12:22:29;11.80;68.50
43651;DHT22;29247;50.944;5.382;2023-02-15T12:25:03;11.90;69.00
43651;DHT22;29247;50.944;5.382;2023-02-15T12:27:32;12.00;68.60
43651;DHT22;29247;50.944;5.382;2023-02-15T12:29:59;12.00;68.30
43651;DHT22;29247;50.944;5.382;2023-02-15T12:32:31;12.10;68.90
43651;DHT22;29247;50.944;5.382;2023-02-15T12:35:09;12.10;67.80
43651;DHT22;29247;50.944;5.382;2023-02-15T12:37:38;12.20;67.60
43651;DHT22;29247;50.944;5.382;2023-02-15T12:40:21;12.20;67.40
43651;DHT22;29247;50.944;5.382;2023-02-15T12:42:48;12.20;67.20
43651;DHT22;29247;50.944;5.382;2023-02-15T12:45:41;12.30;66.70
43651;DHT22;29247;50.944;5.382;2023-02-15T12:50:43;12.40;66.40
43651;DHT22;29247;50.944;5.382;2023-02-15T12:58:32;12.50;65.90
43651;DHT22;29247;50.944;5.382;2023-02-15T13:01:25;12.60;65.50
43651;DHT22;29247;50.944;5.382;2023-02-15T13:04:27;12.60;65.20
43651;DHT22;29247;50.944;5.382;2023-02-15T13:06:58;12.60;65.10
43651;DHT22;29247;50.944;5.382;2023-02-15T13:12:08;12.60;65.00
43651;DHT22;29247;50.944;5.382;2023-02-15T13:14:35;12.70;65.20
43651;DHT22;29247;50.944;5.382;2023-02-15T13:17:03;12.70;66.30
43651;DHT22;29247;50.944;5.382;2023-02-15T13:19:37;12.80;65.40
43651;DHT22;29247;50.944;5.382;2023-02-15T13:22:22;12.80;65.30
43651;DHT22;29247;50.944;5.382;2023-02-15T13:24:54;12.90;65.00
43651;DHT22;29247;50.944;5.382;2023-02-15T13:27:24;12.90;64.50
43651;DHT22;29247;50.944;5.382;2023-02-15T13:29:58;13.00;64.60
43651;DHT22;29247;50.944;5.382;2023-02-15T13:32:35;13.00;64.50
43651;DHT22;29247;50.944;5.382;2023-02-15T13:35:04;13.00;64.30
43651;DHT22;29247;50.944;5.382;2023-02-15T13:40:40;13.00;64.10
43651;DHT22;29247;50.944;5.382;2023-02-15T13:44:03;13.10;64.30
43651;DHT22;29247;50.944;5.382;2023-02-15T13:46:18;13.10;64.40
43651;DHT22;29247;50.944;5.382;2023-02-15T13:54:47;13.20;64.80
43651;DHT22;29247;50.944;5.382;2023-02-15T14:00:19;13.20;64.60
43651;DHT22;29247;50.944;5.382;2023-02-15T14:11:46;13.30;64.60
43651;DHT22;29247;50.944;5.382;2023-02-15T14:28:45;13.30;64.40
43651;DHT22;29247;50.944;5.382;2023-02-15T14:31:15;13.30;64.30
43651;DHT22;29247;50.944;5.382;2023-02-15T14:34:00;13.30;64.20
43651;DHT22;29247;50.944;5.382;2023-02-15T14:36:30;13.30;64.30
43651;DHT22;29247;50.944;5.382;2023-02-15T14:39:11;13.30;64.20
43651;DHT22;29247;50.944;5.382;2023-02-15T14:42:08;13.40;64.30
43651;DHT22;29247;50.944;5.382;2023-02-15T14:44:52;13.40;64.00
43651;DHT22;29247;50.944;5.382;2023-02-15T14:47:35;13.40;64.00
43651;DHT22;29247;50.944;5.382;2023-02-15T14:58:30;13.40;63.80
43651;DHT22;29247;50.944;5.382;2023-02-15T15:01:07;13.40;63.80
43651;DHT22;29247;50.944;5.382;2023-02-15T15:03:36;13.30;63.90
43651;DHT22;29247;50.944;5.382;2023-02-15T15:06:03;13.30;64.00
43651;DHT22;29247;50.944;5.382;2023-02-15T15:08:36;13.30;64.20
43651;DHT22;29247;50.944;5.382;2023-02-15T15:13:56;13.20;64.50
43651;DHT22;29247;50.944;5.382;2023-02-15T15:16:29;13.20;64.60
43651;DHT22;29247;50.944;5.382;2023-02-15T15:18:56;13.20;65.00
43651;DHT22;29247;50.944;5.382;2023-02-15T15:30:46;13.00;65.50
43651;DHT22;29247;50.944;5.382;2023-02-15T15:41:42;12.90;66.20
43651;DHT22;29247;50.944;5.382;2023-02-15T15:44:37;12.80;66.20
43651;DHT22;29247;50.944;5.382;2023-02-15T15:50:13;12.70;66.60
43651;DHT22;29247;50.944;5.382;2023-02-15T15:52:49;12.70;66.80
43651;DHT22;29247;50.944;5.382;2023-02-15T15:55:21;12.70;67.00
43651;DHT22;29247;50.944;5.382;2023-02-15T15:57:52;12.60;67.20
43651;DHT22;29247;50.944;5.382;2023-02-15T16:00:55;12.60;67.40
43651;DHT22;29247;50.944;5.382;2023-02-15T16:03:28;12.50;67.60
43651;DHT22;29247;50.944;5.382;2023-02-15T16:05:55;12.50;67.60
43651;DHT22;29247;50.944;5.382;2023-02-15T16:08:27;12.50;67.90
43651;DHT22;29247;50.944;5.382;2023-02-15T16:10:53;12.40;68.10
43651;DHT22;29247;50.944;5.382;2023-02-15T16:13:19;12.40;68.10
43651;DHT22;29247;50.944;5.382;2023-02-15T16:15:47;12.30;68.20
43651;DHT22;29247;50.944;5.382;2023-02-15T16:18:22;12.30;68.40
43651;DHT22;29247;50.944;5.382;2023-02-15T16:20:55;12.30;68.60
43651;DHT22;29247;50.944;5.382;2023-02-15T16:23:57;12.20;68.70
43651;DHT22;29247;50.944;5.382;2023-02-15T16:29:32;12.10;68.90
43651;DHT22;29247;50.944;5.382;2023-02-15T16:32:05;12.00;69.10
43651;DHT22;29247;50.944;5.382;2023-02-15T16:34:32;12.00;69.30
43651;DHT22;29247;50.944;5.382;2023-02-15T16:37:14;11.90;69.50
43651;DHT22;29247;50.944;5.382;2023-02-15T16:39:41;11.80;69.60
43651;DHT22;29247;50.944;5.382;2023-02-15T16:42:08;11.80;69.60
43651;DHT22;29247;50.944;5.382;2023-02-15T16:44:35;11.70;69.80
43651;DHT22;29247;50.944;5.382;2023-02-15T16:47:01;11.70;70.00
43651;DHT22;29247;50.944;5.382;2023-02-15T16:49:28;11.60;70.10
43651;DHT22;29247;50.944;5.382;2023-02-15T16:51:56;11.60;70.30
43651;DHT22;29247;50.944;5.382;2023-02-15T16:54:24;11.50;70.40
43651;DHT22;29247;50.944;5.382;2023-02-15T16:56:51;11.50;70.40
43651;DHT22;29247;50.944;5.382;2023-02-15T16:59:31;11.40;70.50
43651;DHT22;29247;50.944;5.382;2023-02-15T17:02:04;11.40;70.60
43651;DHT22;29247;50.944;5.382;2023-02-15T17:04:31;11.30;70.70
43651;DHT22;29247;50.944;5.382;2023-02-15T17:07:12;11.20;70.80
43651;DHT22;29247;50.944;5.382;2023-02-15T17:09:54;11.20;71.10
43651;DHT22;29247;50.944;5.382;2023-02-15T17:12:46;11.10;71.20
43651;DHT22;29247;50.944;5.382;2023-02-15T17:15:35;11.10;71.40
43651;DHT22;29247;50.944;5.382;2023-02-15T17:18:22;11.00;71.50
43651;DHT22;29247;50.944;5.382;2023-02-15T17:20:50;10.90;71.70
43651;DHT22;29247;50.944;5.382;2023-02-15T17:23:31;10.90;71.90
43651;DHT22;29247;50.944;5.382;2023-02-15T17:25:58;10.80;71.90
43651;DHT22;29247;50.944;5.382;2023-02-15T17:28:28;10.80;72.00
43651;DHT22;29247;50.944;5.382;2023-02-15T17:30:58;10.70;72.20
43651;DHT22;29247;50.944;5.382;2023-02-15T17:33:25;10.70;72.40
43651;DHT22;29247;50.944;5.382;2023-02-15T17:36:23;10.70;72.70
43651;DHT22;29247;50.944;5.382;2023-02-15T17:41:30;10.50;72.90
43651;DHT22;29247;50.944;5.382;2023-02-15T17:43:58;10.50;73.00
43651;DHT22;29247;50.944;5.382;2023-02-15T17:46:25;10.50;73.20
43651;DHT22;29247;50.944;5.382;2023-02-15T17:48:57;10.50;73.40
43651;DHT22;29247;50.944;5.382;2023-02-15T17:51:23;10.40;73.50
43651;DHT22;29247;50.944;5.382;2023-02-15T17:53:48;10.40;73.60
43651;DHT22;29247;50.944;5.382;2023-02-15T17:56:34;10.40;73.70
43651;DHT22;29247;50.944;5.382;2023-02-15T17:59:00;10.30;73.70
43651;DHT22;29247;50.944;5.382;2023-02-15T18:01:36;10.30;73.80
43651;DHT22;29247;50.944;5.382;2023-02-15T18:04:22;10.30;73.90
43651;DHT22;29247;50.944;5.382;2023-02-15T18:07:18;10.20;73.80
43651;DHT22;29247;50.944;5.382;2023-02-15T18:10:15;10.10;74.00
43651;DHT22;29247;50.944;5.382;2023-02-15T18:13:00;10.10;74.20
43651;DHT22;29247;50.944;5.382;2023-02-15T18:15:26;10.10;74.20
43651;DHT22;29247;50.944;5.382;2023-02-15T18:17:53;10.00;75.10
43651;DHT22;29247;50.944;5.382;2023-02-15T18:20:22;9.90;74.50
43651;DHT22;29247;50.944;5.382;2023-02-15T18:22:50;9.90;74.70
43651;DHT22;29247;50.944;5.382;2023-02-15T18:25:20;9.90;74.80
43651;DHT22;29247;50.944;5.382;2023-02-15T18:27:47;9.90;74.70
43651;DHT22;29247;50.944;5.382;2023-02-15T18:30:15;9.80;74.70
43651;DHT22;29247;50.944;5.382;2023-02-15T18:32:42;9.80;74.80
43651;DHT22;29247;50.944;5.382;2023-02-15T18:35:16;9.70;74.90
43651;DHT22;29247;50.944;5.382;2023-02-15T18:37:44;9.70;75.00
43651;DHT22;29247;50.944;5.382;2023-02-15T18:40:15;9.70;75.10
43651;DHT22;29247;50.944;5.382;2023-02-15T18:42:43;9.60;75.30
43651;DHT22;29247;50.944;5.382;2023-02-15T18:47:45;9.60;75.60
43651;DHT22;29247;50.944;5.382;2023-02-15T18:50:16;9.50;75.60
43651;DHT22;29247;50.944;5.382;2023-02-15T18:52:44;9.50;75.70
43651;DHT22;29247;50.944;5.382;2023-02-15T18:55:22;9.50;75.90
43651;DHT22;29247;50.944;5.382;2023-02-15T18:57:53;9.50;76.00
43651;DHT22;29247;50.944;5.382;2023-02-15T19:00:26;9.40;75.80
43651;DHT22;29247;50.944;5.382;2023-02-15T19:02:56;9.40;75.90
43651;DHT22;29247;50.944;5.382;2023-02-15T19:05:24;9.30;75.90
43651;DHT22;29247;50.944;5.382;2023-02-15T19:07:56;9.30;76.00
43651;DHT22;29247;50.944;5.382;2023-02-15T19:10:24;9.30;76.10
43651;DHT22;29247;50.944;5.382;2023-02-15T19:12:53;9.20;76.20
43651;DHT22;29247;50.944;5.382;2023-02-15T19:15:27;9.20;76.30
43651;DHT22;29247;50.944;5.382;2023-02-15T19:17:58;9.20;76.40
43651;DHT22;29247;50.944;5.382;2023-02-15T19:20:32;9.10;76.40
43651;DHT22;29247;50.944;5.382;2023-02-15T19:23:00;9.10;76.60
43651;DHT22;29247;50.944;5.382;2023-02-15T19:25:29;9.10;76.60
43651;DHT22;29247;50.944;5.382;2023-02-15T19:27:56;9.00;76.50